Time;durP1;ratioP1;P1;durP2;ratioP2;P2;SDS_P1;SDS_P2;PMS_P1;PMS_P2;Temp;Humidity;BMP_temperature;BMP_pressure;BME280_temperature;BME280_humidity;BME280_pressure;Samples;Min_cycle;Max_cycle;Signal;HPM_P1;HPM_P2
2021/08/09 00:00:25;;;;;;;6.45;2.83;;;;;;;12.39;100.00;96375.91;1024714;28;20110;-52
2021/08/09 00:00:55;;;;;;;5.50;2.90;;;;;;;12.39;100.00;96372.44;1024429;28;20059;-53
2021/08/09 00:01:26;;;;;;;5.53;2.70;;;;;;;12.34;100.00;96362.25;1020431;29;20051;-53
2021/08/09 00:01:57;;;;;;;5.53;2.70;;;;;;;12.39;100.00;96377.72;1020372;29;20107;-53
2021/08/09 00:02:27;;;;;;;4.65;3.22;;;;;;;12.40;100.00;96367.06;1024351;28;20035;-53
2021/08/09 00:02:58;;;;;;;5.63;2.70;;;;;;;12.43;100.00;96373.91;1024266;28;20397;-52
2021/08/09 00:03:28;;;;;;;4.60;2.92;;;;;;;12.45;100.00;96375.47;1027967;28;20022;-54
2021/08/09 00:03:59;;;;;;;5.75;2.80;;;;;;;12.45;100.00;96372.84;1027793;28;20019;-51
2021/08/09 00:04:30;;;;;;;3.95;2.47;;;;;;;12.45;100.00;96375.47;1028454;28;20026;-53
2021/08/09 00:05:00;;;;;;;5.60;2.55;;;;;;;12.45;100.00;96372.84;1028223;28;20014;-53
2021/08/09 00:05:32;;;;;;;5.30;2.50;;;;;;;12.44;100.00;96370.31;1024467;28;20024;-53
2021/08/09 00:06:03;;;;;;;4.20;2.80;;;;;;;12.40;100.00;96377.56;1028272;28;20019;-54
2021/08/09 00:06:34;;;;;;;4.65;2.70;;;;;;;12.38;100.00;96368.97;1028687;28;20023;-53
2021/08/09 00:07:04;;;;;;;4.65;2.67;;;;;;;12.40;100.00;96372.31;1028605;28;20069;-52
2021/08/09 00:07:35;;;;;;;5.00;3.25;;;;;;;12.42;100.00;96372.22;1020307;29;20011;-52
2021/08/09 00:08:05;;;;;;;7.35;2.92;;;;;;;12.42;100.00;96366.97;1028031;28;20019;-53
2021/08/09 00:08:36;;;;;;;7.35;3.35;;;;;;;12.42;100.00;96370.41;1028151;28;20018;-53
2021/08/09 00:09:07;;;;;;;6.25;2.80;;;;;;;12.46;100.00;96376.28;1020224;29;20016;-52
2021/08/09 00:09:37;;;;;;;6.38;2.85;;;;;;;12.47;100.00;96374.53;1024278;29;20019;-53
2021/08/09 00:10:09;;;;;;;4.18;2.50;;;;;;;12.46;100.00;96376.28;1032022;28;20415;-53
2021/08/09 00:10:39;;;;;;;5.22;2.45;;;;;;;12.43;100.00;96374.75;1032350;28;20073;-52
2021/08/09 00:11:10;;;;;;;6.28;2.80;;;;;;;12.45;100.00;96372.84;1028217;28;20113;-53
2021/08/09 00:11:41;;;;;;;4.25;2.45;;;;;;;12.47;100.00;96375.38;1028902;28;20019;-53
2021/08/09 00:12:11;;;;;;;6.63;2.60;;;;;;;12.45;100.00;96375.47;1032117;28;20014;-53
2021/08/09 00:12:42;;;;;;;5.07;2.95;;;;;;;12.48;100.00;96371.81;1024345;28;20102;-53
2021/08/09 00:13:13;;;;;;;5.15;2.78;;;;;;;12.47;100.00;96366.66;1028200;28;20628;-53
2021/08/09 00:13:43;;;;;;;5.97;2.58;;;;;;;12.47;100.00;96372.72;1027609;28;20390;-54
2021/08/09 00:14:14;;;;;;;6.18;2.80;;;;;;;12.49;100.00;96364.75;1028270;28;20019;-54
2021/08/09 00:14:44;;;;;;;5.00;2.42;;;;;;;12.51;100.00;96362.84;1036523;28;20431;-52
2021/08/09 00:15:15;;;;;;;5.50;2.65;;;;;;;12.52;100.00;96367.13;1032189;28;20026;-53
2021/08/09 00:15:46;;;;;;;5.50;2.65;;;;;;;12.53;100.00;96360.94;1028194;28;20065;-54
2021/08/09 00:16:16;;;;;;;6.22;2.70;;;;;;;12.53;100.00;96361.78;1028070;28;20504;-53
2021/08/09 00:16:47;;;;;;;4.90;2.60;;;;;;;12.54;100.00;96360.84;1028497;28;20493;-53
2021/08/09 00:17:17;;;;;;;7.70;2.70;;;;;;;12.52;100.00;96354.84;1024419;28;20049;-53
2021/08/09 00:17:48;;;;;;;7.70;3.03;;;;;;;12.54;100.00;96354.75;1028330;28;20019;-53
2021/08/09 00:18:21;;;;;;;3.97;2.13;;;;;;;12.53;100.00;96353.06;1028158;28;20101;-54
2021/08/09 00:18:52;;;;;;;4.50;2.55;;;;;;;12.54;100.00;96355.59;1024793;28;20393;-53
2021/08/09 00:19:23;;;;;;;5.93;2.50;;;;;;;12.55;100.00;96351.16;1024676;28;20022;-53
2021/08/09 00:19:53;;;;;;;3.15;2.45;;;;;;;12.55;100.00;96349.34;1024747;28;20106;-52
2021/08/09 00:20:24;;;;;;;4.78;2.97;;;;;;;12.56;100.00;96351.06;1020510;29;20135;-53
2021/08/09 00:20:57;;;;;;;5.47;2.40;;;;;;;12.56;100.00;96347.59;1024422;28;20022;-52
2021/08/09 00:21:27;;;;;;;7.65;2.50;;;;;;;12.54;100.00;96352.13;1028753;28;20473;-53
2021/08/09 00:21:58;;;;;;;8.52;2.95;;;;;;;12.54;100.00;96347.69;1029073;28;20059;-54
2021/08/09 00:22:29;;;;;;;5.78;2.60;;;;;;;12.57;100.00;96354.50;1036198;28;20097;-52
2021/08/09 00:22:59;;;;;;;6.22;2.38;;;;;;;12.54;100.00;96350.31;1032134;28;20029;-53
2021/08/09 00:23:30;;;;;;;5.05;2.58;;;;;;;12.56;100.00;96348.44;1019794;29;20031;-53
2021/08/09 00:24:00;;;;;;;8.63;2.78;;;;;;;12.57;100.00;96347.47;1019957;29;20102;-52
2021/08/09 00:24:31;;;;;;;6.25;2.83;;;;;;;12.60;100.00;96349.88;1016359;29;20031;-52
2021/08/09 00:25:02;;;;;;;4.50;2.60;;;;;;;12.58;100.00;96348.31;1024276;28;20023;-54
2021/08/09 00:25:33;;;;;;;4.32;2.50;;;;;;;12.58;100.00;96341.25;1024298;29;20513;-53
2021/08/09 00:26:03;;;;;;;4.35;2.53;;;;;;;12.60;100.00;96343.78;1028138;28;20062;-53
2021/08/09 00:26:34;;;;;;;3.80;2.30;;;;;;;12.58;100.00;96343.06;1028063;28;20031;-53
2021/08/09 00:27:05;;;;;;;6.10;2.65;;;;;;;12.56;100.00;96343.16;1024278;28;20025;-52
2021/08/09 00:27:35;;;;;;;6.45;2.92;;;;;;;12.54;100.00;96344.25;1028487;28;20050;-53
2021/08/09 00:28:06;;;;;;;5.47;2.83;;;;;;;12.56;100.00;96345.78;1032314;28;20026;-54
2021/08/09 00:28:37;;;;;;;4.20;2.65;;;;;;;12.58;100.00;96343.06;1028146;28;20022;-53
2021/08/09 00:29:07;;;;;;;4.35;2.28;;;;;;;12.58;100.00;96343.88;1028013;28;20138;-53
2021/08/09 00:29:38;;;;;;;6.47;2.55;;;;;;;12.58;100.00;96350.94;1020197;29;20482;-51
2021/08/09 00:30:10;;;;;;;5.53;3.40;;;;;;;12.52;100.00;96344.34;1027991;28;20070;-53
2021/08/09 00:30:40;;;;;;;4.35;2.70;;;;;;;12.54;100.00;96345.06;1024053;28;20161;-53
2021/08/09 00:31:11;;;;;;;4.75;2.50;;;;;;;12.53;100.00;96339.91;1028085;28;20514;-53
2021/08/09 00:31:41;;;;;;;5.97;3.05;;;;;;;12.51;100.00;96347.06;1020153;29;20517;-52
2021/08/09 00:32:12;;;;;;;5.80;3.15;;;;;;;12.51;100.00;96340.03;1020475;29;20024;-53
2021/08/09 00:32:42;;;;;;;5.85;3.00;;;;;;;12.50;100.00;96340.97;1020123;29;20024;-53
2021/08/09 00:33:13;;;;;;;5.28;3.20;;;;;;;12.49;100.00;96346.34;1020603;28;20031;-53
2021/08/09 00:33:44;;;;;;;5.57;3.05;;;;;;;12.48;100.00;96342.88;1035548;28;20519;-53
2021/08/09 00:34:14;;;;;;;7.70;3.20;;;;;;;12.49;100.00;96338.47;1036479;28;20125;-53
2021/08/09 00:34:45;;;;;;;4.95;2.80;;;;;;;12.47;100.00;96341.19;1040542;28;20040;-54
2021/08/09 00:35:15;;;;;;;3.72;2.85;;;;;;;12.45;100.00;96340.47;1031853;28;20034;-52
2021/08/09 00:35:46;;;;;;;5.43;3.05;;;;;;;12.45;100.00;96343.94;1024015;29;20015;-53
2021/08/09 00:36:17;;;;;;;8.13;2.95;;;;;;;12.48;100.00;96342.03;1016377;29;20059;-53
2021/08/09 00:36:48;;;;;;;5.68;2.90;;;;;;;12.50;100.00;96340.97;1020225;29;20054;-53
2021/08/09 00:37:18;;;;;;;4.50;2.60;;;;;;;12.48;100.00;96344.66;1020249;29;20048;-53
2021/08/09 00:37:49;;;;;;;5.30;2.97;;;;;;;12.45;100.00;96341.31;1020415;29;20106;-52
2021/08/09 00:38:20;;;;;;;5.57;2.80;;;;;;;12.44;100.00;96344.03;1024512;28;20098;-53
2021/08/09 00:38:50;;;;;;;6.82;3.00;;;;;;;12.45;100.00;96345.72;1032031;28;20476;-52
2021/08/09 00:39:21;;;;;;;4.18;2.60;;;;;;;12.44;100.00;96347.53;1027926;28;20122;-53
2021/08/09 00:39:51;;;;;;;5.25;2.90;;;;;;;12.42;100.00;96349.38;1023965;29;20110;-52
2021/08/09 00:40:22;;;;;;;5.72;2.92;;;;;;;12.44;100.00;96346.66;1027902;28;20101;-53
2021/08/09 00:40:52;;;;;;;6.53;3.45;;;;;;;12.42;100.00;96345.94;1024167;29;20027;-54
2021/08/09 00:41:23;;;;;;;5.53;2.85;;;;;;;12.39;100.00;96347.00;1024146;28;20050;-54
2021/08/09 00:41:54;;;;;;;4.13;2.88;;;;;;;12.36;100.00;96341.94;1027991;28;20509;-53
2021/08/09 00:42:24;;;;;;;4.60;2.80;;;;;;;12.38;100.00;96347.09;1028142;28;20019;-53
2021/08/09 00:42:55;;;;;;;6.47;2.80;;;;;;;12.40;100.00;96340.78;1024023;29;20102;-54
2021/08/09 00:43:25;;;;;;;5.18;3.10;;;;;;;12.37;100.00;96341.03;1023289;28;20527;-53
2021/08/09 00:43:56;;;;;;;5.03;2.80;;;;;;;12.40;100.00;96345.22;1023611;28;20481;-53
2021/08/09 00:44:26;;;;;;;5.95;3.10;;;;;;;12.40;100.00;96348.66;1024327;28;20110;-54
2021/08/09 00:44:57;;;;;;;6.47;2.85;;;;;;;12.38;100.00;96349.72;1023841;28;20024;-53
2021/08/09 00:45:28;;;;;;;4.45;2.88;;;;;;;12.34;100.00;96345.66;1024062;29;20568;-52
2021/08/09 00:46:03;;;;;;;5.97;2.75;;;;;;;12.35;100.00;96344.69;1012194;29;20021;-53
2021/08/09 00:46:33;;;;;;;5.78;2.60;;;;;;;12.37;100.00;96342.78;1016138;29;20023;-54
2021/08/09 00:47:04;;;;;;;6.47;2.83;;;;;;;12.38;100.00;96345.31;1023992;29;20030;-53
2021/08/09 00:47:34;;;;;;;4.85;2.90;;;;;;;12.37;100.00;96342.78;1023957;29;20023;-53
2021/08/09 00:48:05;;;;;;;5.25;3.08;;;;;;;12.34;100.00;96335.97;1024187;29;20042;-52
2021/08/09 00:48:36;;;;;;;5.28;2.97;;;;;;;12.34;100.00;96341.22;1016326;29;20395;-53
2021/08/09 00:49:07;;;;;;;4.57;2.70;;;;;;;12.34;100.00;96340.41;1016036;29;20020;-54
2021/08/09 00:49:37;;;;;;;4.68;3.00;;;;;;;12.35;100.00;96339.44;1011705;29;20025;-53
2021/08/09 00:50:08;;;;;;;11.10;3.40;;;;;;;12.36;100.00;96347.22;1023817;29;20114;-53
2021/08/09 00:50:39;;;;;;;5.60;2.70;;;;;;;12.36;100.00;96343.75;1028088;28;20026;-53
2021/08/09 00:51:10;;;;;;;6.55;3.05;;;;;;;12.33;100.00;96343.97;1016178;29;20063;-53
2021/08/09 00:51:40;;;;;;;7.13;3.20;;;;;;;12.31;100.00;96335.34;1023854;29;20046;-52
2021/08/09 00:52:11;;;;;;;3.90;2.90;;;;;;;12.27;100.00;96337.34;1020179;29;20071;-54
2021/08/09 00:52:41;;;;;;;8.30;3.58;;;;;;;12.25;100.00;96336.63;1020284;29;20016;-53
2021/08/09 00:53:12;;;;;;;4.47;2.85;;;;;;;12.27;100.00;96333.88;1020111;29;20039;-52
2021/08/09 00:53:43;;;;;;;5.03;3.10;;;;;;;12.27;100.00;96339.97;1015473;29;20023;-52
2021/08/09 00:54:13;;;;;;;4.65;2.95;;;;;;;12.26;100.00;96333.06;1016255;29;20020;-54
2021/08/09 00:54:44;;;;;;;6.32;3.53;;;;;;;12.25;100.00;96340.06;1016284;29;20513;-53
2021/08/09 00:55:14;;;;;;;4.10;2.85;;;;;;;12.24;100.00;96335.78;1016092;29;20114;-53
2021/08/09 00:55:46;;;;;;;4.55;3.03;;;;;;;12.26;100.00;96343.56;1016193;29;20024;-53
2021/08/09 00:56:17;;;;;;;4.25;2.80;;;;;;;12.25;100.00;96334.00;1024001;29;20055;-53
2021/08/09 00:56:47;;;;;;;6.40;2.90;;;;;;;12.22;100.00;96335.06;1020102;29;20024;-53
2021/08/09 00:57:18;;;;;;;9.07;3.05;;;;;;;12.23;100.00;96334.09;1024051;29;20054;-53
2021/08/09 00:57:48;;;;;;;8.32;3.17;;;;;;;12.19;100.00;96340.53;1024095;28;20486;-52
2021/08/09 00:58:20;;;;;;;5.28;2.90;;;;;;;12.19;100.00;96331.81;1024178;28;20031;-53
2021/08/09 00:58:50;;;;;;;4.53;3.33;;;;;;;12.16;100.00;96325.00;1020227;29;20107;-53
2021/08/09 00:59:21;;;;;;;5.45;3.30;;;;;;;12.15;100.00;96325.09;1023943;29;20023;-53
2021/08/09 00:59:51;;;;;;;7.03;3.15;;;;;;;12.15;100.00;96325.94;1019837;29;20131;-53
2021/08/09 01:00:22;;;;;;;6.50;3.65;;;;;;;12.15;100.00;96325.09;1016307;29;20051;-53
2021/08/09 01:00:53;;;;;;;6.68;3.00;;;;;;;12.13;100.00;96325.19;1015984;29;20043;-53
2021/08/09 01:01:23;;;;;;;7.25;2.92;;;;;;;12.13;100.00;96329.63;1016162;29;20035;-53
2021/08/09 01:01:54;;;;;;;6.68;3.50;;;;;;;12.10;100.00;96322.78;1012118;29;20031;-51
2021/08/09 01:02:25;;;;;;;6.47;3.20;;;;;;;12.11;100.00;96321.00;1014022;29;20092;-52
2021/08/09 01:02:56;;;;;;;7.30;3.33;;;;;;;12.11;100.00;96329.72;1016685;29;20123;-54
2021/08/09 01:03:26;;;;;;;7.15;3.30;;;;;;;12.11;100.00;96328.91;1015974;29;20131;-53
2021/08/09 01:03:57;;;;;;;5.82;3.00;;;;;;;12.08;100.00;96323.84;1015542;29;20461;-53
2021/08/09 01:04:27;;;;;;;6.00;3.15;;;;;;;12.05;100.00;96319.66;1016063;29;20374;-53
2021/08/09 01:05:00;;;;;;;8.88;3.08;;;;;;;12.03;100.00;96327.63;1020122;29;20127;-54
2021/08/09 01:05:31;;;;;;;4.82;2.97;;;;;;;12.01;100.00;96328.69;1020399;29;20059;-54
2021/08/09 01:06:01;;;;;;;6.18;3.38;;;;;;;11.99;100.00;96320.94;1024564;28;20016;-53
2021/08/09 01:06:32;;;;;;;6.65;3.15;;;;;;;12.01;100.00;96333.94;1020394;29;20019;-53
2021/08/09 01:07:03;;;;;;;4.40;3.38;;;;;;;12.01;100.00;96329.53;1019963;29;20063;-52
2021/08/09 01:07:38;;;;;;;7.80;3.30;;;;;;;12.00;100.00;96332.25;1020079;29;20035;-54
2021/08/09 01:08:39;;;;;;;8.00;3.47;;;;;;;11.99;100.00;96333.19;1023882;29;20564;-52
2021/08/09 01:09:19;;;;;;;5.63;3.40;;;;;;;11.98;100.00;96339.41;1027971;28;20118;-53
2021/08/09 01:09:51;;;;;;;6.10;3.47;;;;;;;11.99;100.00;96346.34;1030777;28;20114;-53
2021/08/09 01:10:29;;;;;;;6.43;3.40;;;;;;;11.95;100.00;96344.88;1032036;28;20488;-53
2021/08/09 01:11:12;;;;;;;8.00;3.83;;;;;;;11.94;100.00;96346.66;1028023;28;20025;-52
2021/08/09 01:12:05;;;;;;;5.43;3.60;;;;;;;11.96;100.00;96349.19;1020026;29;20028;-53
2021/08/09 01:12:35;;;;;;;5.60;3.38;;;;;;;11.96;100.00;96352.66;1016506;29;20024;-53
2021/08/09 01:13:15;;;;;;;6.38;3.55;;;;;;;11.96;100.00;96359.69;1020037;29;20104;-52
2021/08/09 01:14:10;;;;;;;8.80;3.80;;;;;;;11.91;100.00;96349.50;1019462;29;20062;-53
2021/08/09 01:14:58;;;;;;;9.02;3.53;;;;;;;11.89;100.00;96351.34;1020325;29;20020;-52
2021/08/09 01:15:30;;;;;;;7.45;3.38;;;;;;;11.88;100.00;96360.19;1025521;28;20082;-53
2021/08/09 01:16:04;;;;;;;5.68;3.47;;;;;;;11.83;100.00;96347.38;1023991;28;20074;-53
2021/08/09 01:16:37;;;;;;;5.60;3.50;;;;;;;11.85;100.00;96350.72;1016139;29;20028;-53
2021/08/09 01:17:10;;;;;;;6.20;3.65;;;;;;;11.82;100.00;96353.59;1017170;29;20020;-53
2021/08/09 01:17:43;;;;;;;6.45;3.75;;;;;;;11.80;100.00;96359.88;1023834;29;20102;-52
2021/08/09 01:18:14;;;;;;;6.97;3.58;;;;;;;11.79;100.00;96356.41;1020008;29;20016;-53
2021/08/09 01:18:44;;;;;;;5.97;3.80;;;;;;;11.78;100.00;96356.50;1015927;29;20047;-53
2021/08/09 01:19:26;;;;;;;6.57;3.60;;;;;;;11.75;100.00;96360.19;1019868;29;20546;-53
2021/08/09 01:20:10;;;;;;;7.50;3.55;;;;;;;11.75;100.00;96354.94;1020116;29;20074;-53
2021/08/09 01:20:48;;;;;;;6.35;3.47;;;;;;;11.76;100.00;96359.22;1019438;29;20035;-52
2021/08/09 01:21:18;;;;;;;5.10;3.33;;;;;;;11.75;100.00;96362.81;1019896;29;20016;-52
2021/08/09 01:21:49;;;;;;;4.80;3.38;;;;;;;11.73;100.00;96362.09;1020001;29;20111;-53
2021/08/09 01:22:25;;;;;;;5.68;3.22;;;;;;;11.70;100.00;96359.66;1016101;29;20036;-53
2021/08/09 01:23:25;;;;;;;6.78;3.75;;;;;;;11.69;100.00;96365.84;1019958;29;20031;-53
2021/08/09 01:23:58;;;;;;;6.38;3.92;;;;;;;11.67;100.00;96359.84;1020916;28;20027;-53
2021/08/09 01:25:01;;;;;;;6.78;3.67;;;;;;;11.71;100.00;96363.94;1020232;29;20478;-53
2021/08/09 01:25:52;;;;;;;6.18;3.72;;;;;;;11.70;100.00;96357.03;1019338;29;20406;-53
2021/08/09 01:26:42;;;;;;;6.07;3.92;;;;;;;11.71;100.00;96363.94;1016067;29;20028;-52
2021/08/09 01:27:29;;;;;;;5.60;3.30;;;;;;;11.72;100.00;96362.19;1013215;29;20515;-53
2021/08/09 01:28:00;;;;;;;6.35;3.30;;;;;;;11.69;100.00;96360.59;1020246;29;20512;-51
2021/08/09 01:28:32;;;;;;;6.50;3.50;;;;;;;11.68;100.00;96359.75;1019991;29;20102;-53
2021/08/09 01:29:06;;;;;;;11.52;4.60;;;;;;;11.67;100.00;96363.34;1012238;29;20463;-52
2021/08/09 01:29:38;;;;;;;7.55;3.42;;;;;;;11.67;100.00;96357.22;1016022;29;20467;-53
2021/08/09 01:30:10;;;;;;;8.80;3.58;;;;;;;11.67;100.00;96363.34;1017035;29;20036;-52
2021/08/09 01:30:40;;;;;;;7.55;3.58;;;;;;;11.64;100.00;96360.91;1020830;29;20562;-50
2021/08/09 01:31:12;;;;;;;6.10;3.58;;;;;;;11.65;100.00;96362.56;1023827;29;20062;-54
2021/08/09 01:31:45;;;;;;;6.03;3.10;;;;;;;11.66;100.00;96358.19;1015924;29;20419;-51
2021/08/09 01:32:16;;;;;;;8.88;3.55;;;;;;;11.66;100.00;96368.69;1016250;29;20031;-53
2021/08/09 01:32:47;;;;;;;7.97;3.75;;;;;;;11.65;100.00;96351.25;1024740;28;20046;-53
2021/08/09 01:33:18;;;;;;;5.70;3.47;;;;;;;11.65;100.00;96351.25;1021017;28;20031;-52
2021/08/09 01:33:48;;;;;;;6.88;3.72;;;;;;;11.67;100.00;96354.59;1015193;29;20119;-53
2021/08/09 01:34:19;;;;;;;6.07;3.15;;;;;;;11.66;100.00;96352.94;1020185;29;20079;-54
2021/08/09 01:34:50;;;;;;;6.72;3.60;;;;;;;11.65;100.00;96354.72;1016246;29;20020;-53
2021/08/09 01:35:23;;;;;;;8.50;3.55;;;;;;;11.66;100.00;96356.41;1016470;28;20020;-53
2021/08/09 01:35:54;;;;;;;5.63;3.30;;;;;;;11.68;100.00;96353.69;1028603;28;20465;-54
2021/08/09 01:36:26;;;;;;;5.95;2.85;;;;;;;11.68;100.00;96357.13;1032688;28;20022;-53
2021/08/09 01:36:58;;;;;;;4.70;3.10;;;;;;;11.70;100.00;96353.56;1023915;28;20486;-52
2021/08/09 01:37:29;;;;;;;9.38;3.58;;;;;;;11.69;100.00;96355.34;1019761;29;20020;-53
2021/08/09 01:38:00;;;;;;;6.65;3.30;;;;;;;11.68;100.00;96351.06;1019984;29;20031;-53
2021/08/09 01:38:31;;;;;;;5.50;3.55;;;;;;;11.72;100.00;96360.38;1023988;29;20023;-53
2021/08/09 01:39:01;;;;;;;4.75;3.20;;;;;;;11.68;100.00;96349.25;1020016;29;20479;-53
2021/08/09 01:39:32;;;;;;;5.95;3.70;;;;;;;11.67;100.00;96351.97;1020005;29;20106;-53
2021/08/09 01:40:05;;;;;;;5.65;3.65;;;;;;;11.67;100.00;96350.22;1020002;29;20560;-52
2021/08/09 01:40:36;;;;;;;6.63;3.83;;;;;;;11.72;100.00;96351.69;1028052;28;20018;-53
2021/08/09 01:41:07;;;;;;;6.35;3.25;;;;;;;11.71;100.00;96348.19;1027973;28;20397;-53
2021/08/09 01:41:37;;;;;;;9.82;3.72;;;;;;;11.70;100.00;96348.31;1015919;29;20099;-52
2021/08/09 01:42:09;;;;;;;5.93;3.88;;;;;;;11.71;100.00;96352.63;1012043;29;20479;-52
2021/08/09 01:42:42;;;;;;;5.70;3.45;;;;;;;11.71;100.00;96350.81;1012126;29;20036;-52
2021/08/09 01:43:13;;;;;;;4.95;3.25;;;;;;;11.70;100.00;96354.41;1020478;29;20031;-52
2021/08/09 01:43:44;;;;;;;6.25;3.67;;;;;;;11.71;100.00;96348.19;1017837;29;20064;-54
2021/08/09 01:44:14;;;;;;;5.20;3.10;;;;;;;11.75;100.00;96348.81;1019863;29;20028;-53
2021/08/09 01:44:45;;;;;;;7.22;3.13;;;;;;;11.76;100.00;96350.53;1019976;29;20490;-52
2021/08/09 01:45:16;;;;;;;6.13;3.10;;;;;;;11.77;100.00;96355.66;1027764;28;20034;-53
2021/08/09 01:45:46;;;;;;;5.15;3.28;;;;;;;11.77;100.00;96352.19;1023892;29;20023;-53
2021/08/09 01:46:17;;;;;;;6.97;3.63;;;;;;;11.79;100.00;96350.31;1019849;29;20502;-53
2021/08/09 01:46:48;;;;;;;5.43;3.63;;;;;;;11.79;100.00;96353.78;1022381;29;20020;-53
2021/08/09 01:47:19;;;;;;;6.20;3.65;;;;;;;11.77;100.00;96352.19;1019835;29;20015;-52
2021/08/09 01:47:50;;;;;;;4.88;3.90;;;;;;;11.80;100.00;96352.81;1019812;29;20037;-53
2021/08/09 01:48:21;;;;;;;6.20;3.65;;;;;;;11.82;100.00;96348.34;1019755;29;20510;-54
2021/08/09 01:48:51;;;;;;;4.88;3.05;;;;;;;11.85;100.00;96355.16;1024156;28;20027;-52
2021/08/09 01:49:22;;;;;;;5.07;3.20;;;;;;;11.89;100.00;96356.59;1023790;28;20513;-53
2021/08/09 01:49:53;;;;;;;6.00;3.38;;;;;;;11.92;100.00;96352.94;1023867;29;20078;-52
2021/08/09 01:50:23;;;;;;;5.28;3.08;;;;;;;11.91;100.00;96352.13;1019811;29;20020;-53
2021/08/09 01:50:55;;;;;;;6.43;3.60;;;;;;;11.96;100.00;96350.03;1016113;29;20028;-53
2021/08/09 01:51:25;;;;;;;6.50;3.50;;;;;;;11.98;100.00;96352.53;1019911;29;20156;-53
2021/08/09 01:51:56;;;;;;;5.13;3.20;;;;;;;11.99;100.00;96348.97;1024183;28;20038;-53
2021/08/09 01:52:26;;;;;;;6.13;3.47;;;;;;;12.02;100.00;96348.75;1027744;28;20050;-52
2021/08/09 01:52:57;;;;;;;8.02;3.75;;;;;;;12.03;100.00;96350.41;1023761;29;20136;-53
2021/08/09 01:53:28;;;;;;;6.18;3.10;;;;;;;12.04;100.00;96344.22;1023578;29;20029;-54
2021/08/09 01:54:00;;;;;;;8.50;3.60;;;;;;;12.04;100.00;96346.84;1019282;29;20032;-53
2021/08/09 01:54:31;;;;;;;7.32;3.05;;;;;;;12.03;100.00;96343.41;1023753;29;20027;-52
2021/08/09 01:55:01;;;;;;;6.70;3.22;;;;;;;12.05;100.00;96345.94;1023789;29;20099;-53
2021/08/09 01:55:32;;;;;;;6.68;3.10;;;;;;;12.06;100.00;96342.34;1019917;29;20505;-54
2021/08/09 01:56:03;;;;;;;6.53;3.60;;;;;;;12.08;100.00;96339.59;1019912;29;20020;-53
2021/08/09 01:56:34;;;;;;;4.95;2.83;;;;;;;12.08;100.00;96336.97;1019995;29;20598;-53
2021/08/09 01:57:05;;;;;;;5.65;3.17;;;;;;;12.09;100.00;96336.00;1023782;28;20079;-52
2021/08/09 01:57:36;;;;;;;6.45;3.35;;;;;;;12.11;100.00;96336.78;1023744;29;20019;-52
2021/08/09 01:58:06;;;;;;;4.93;3.15;;;;;;;12.12;100.00;96341.91;1023844;29;20019;-53
2021/08/09 01:58:37;;;;;;;6.55;3.30;;;;;;;12.13;100.00;96337.50;1023728;29;20031;-52
2021/08/09 01:59:08;;;;;;;6.53;3.42;;;;;;;12.14;100.00;96334.75;1024140;28;20027;-53
2021/08/09 01:59:39;;;;;;;7.47;3.45;;;;;;;12.13;100.00;96330.44;1019964;28;20394;-53
2021/08/09 02:00:14;;;;;;;4.72;2.85;;;;;;;12.13;100.00;96327.00;1020084;29;20035;-53
2021/08/09 02:00:45;;;;;;;5.90;3.13;;;;;;;12.13;100.00;96335.72;1019597;29;20028;-52
2021/08/09 02:01:15;;;;;;;5.28;3.13;;;;;;;12.11;100.00;96331.53;1020611;29;20019;-53
2021/08/09 02:01:46;;;;;;;4.53;2.60;;;;;;;12.10;100.00;96328.03;1020443;29;20592;-52
2021/08/09 02:02:32;;;;;;;5.40;2.92;;;;;;;12.15;100.00;96327.72;1012053;29;20047;-53
2021/08/09 02:03:03;;;;;;;4.53;3.15;;;;;;;12.15;100.00;96332.97;1015899;29;20023;-53
2021/08/09 02:03:33;;;;;;;4.20;2.97;;;;;;;12.14;100.00;96326.03;1023180;29;20080;-52
2021/08/09 02:04:04;;;;;;;5.25;3.17;;;;;;;12.15;100.00;96325.94;1023546;29;20027;-53
2021/08/09 02:04:35;;;;;;;6.07;3.10;;;;;;;12.16;100.00;96327.63;1019837;29;20063;-53
2021/08/09 02:05:08;;;;;;;6.70;3.35;;;;;;;12.19;100.00;96324.75;1020049;29;20024;-52
2021/08/09 02:05:39;;;;;;;6.03;3.05;;;;;;;12.18;100.00;96319.59;1019751;29;20114;-52
2021/08/09 02:06:11;;;;;;;7.55;3.05;;;;;;;12.16;100.00;96317.13;1020384;29;20020;-53
2021/08/09 02:06:43;;;;;;;5.90;2.72;;;;;;;12.13;100.00;96325.19;1023660;29;20023;-52
2021/08/09 02:07:14;;;;;;;5.85;2.95;;;;;;;12.08;100.00;96319.44;1020378;29;20028;-53
2021/08/09 02:07:46;;;;;;;5.68;3.38;;;;;;;12.05;100.00;96317.03;1019709;29;20541;-54
2021/08/09 02:08:16;;;;;;;7.35;3.30;;;;;;;12.03;100.00;96322.38;1015938;29;20027;-54
2021/08/09 02:08:47;;;;;;;7.30;3.53;;;;;;;12.02;100.00;96318.06;1016312;29;20020;-52
2021/08/09 02:09:18;;;;;;;5.38;2.83;;;;;;;12.02;100.00;96322.50;1016814;28;20031;-53
2021/08/09 02:09:48;;;;;;;7.40;2.60;;;;;;;11.99;100.00;96322.69;1023805;28;20070;-54
2021/08/09 02:10:22;;;;;;;6.90;2.85;;;;;;;12.04;100.00;96321.44;1019849;29;20028;-54
2021/08/09 02:10:57;;;;;;;5.28;2.83;;;;;;;12.12;100.00;96320.88;1015777;29;20085;-53
2021/08/09 02:11:38;;;;;;;5.38;2.80;;;;;;;12.09;100.00;96321.13;1015965;29;20026;-51
2021/08/09 02:12:08;;;;;;;4.65;2.75;;;;;;;12.11;100.00;96324.47;1018192;29;20103;-54
2021/08/09 02:12:45;;;;;;;5.85;2.78;;;;;;;12.12;100.00;96318.25;1019729;29;20107;-53
2021/08/09 02:13:19;;;;;;;5.93;2.90;;;;;;;12.14;100.00;96320.78;1019737;29;20055;-53
2021/08/09 02:13:51;;;;;;;4.63;2.50;;;;;;;12.18;100.00;96322.22;1022840;29;20093;-53
2021/08/09 02:14:23;;;;;;;5.18;2.60;;;;;;;12.14;100.00;96315.53;1017516;29;20034;-52
2021/08/09 02:14:54;;;;;;;4.43;2.88;;;;;;;12.14;100.00;96321.59;1020737;29;20023;-53
2021/08/09 02:15:38;;;;;;;4.80;2.55;;;;;;;12.09;100.00;96320.25;1016499;29;20523;-54
2021/08/09 02:16:14;;;;;;;5.55;2.72;;;;;;;12.10;100.00;96319.31;1025915;28;20273;-53
2021/08/09 02:17:08;;;;;;;5.63;2.63;;;;;;;12.07;100.00;96328.28;1023743;29;20035;-53
2021/08/09 02:17:40;;;;;;;4.55;2.47;;;;;;;12.11;100.00;96324.47;1019763;29;20024;-53
2021/08/09 02:18:31;;;;;;;8.18;3.25;;;;;;;12.01;100.00;96315.53;1019812;29;20024;-53
2021/08/09 02:19:05;;;;;;;5.00;2.95;;;;;;;12.00;100.00;96319.97;1027741;28;20034;-53
2021/08/09 02:19:56;;;;;;;5.22;3.05;;;;;;;12.07;100.00;96325.63;1027141;28;20061;-53
2021/08/09 02:20:34;;;;;;;4.53;2.92;;;;;;;12.11;100.00;96319.22;1023828;29;20023;-53
2021/08/09 02:21:07;;;;;;;4.50;2.55;;;;;;;12.08;100.00;96318.59;1027943;28;20014;-53
2021/08/09 02:21:43;;;;;;;4.18;2.50;;;;;;;12.07;100.00;96317.75;1027600;28;20023;-52
2021/08/09 02:22:37;;;;;;;4.40;2.50;;;;;;;12.06;100.00;96318.69;1019763;29;20031;-54
2021/08/09 02:23:13;;;;;;;7.53;3.08;;;;;;;11.99;100.00;96320.94;1019653;29;20028;-53
2021/08/09 02:23:47;;;;;;;4.93;2.90;;;;;;;11.96;100.00;96320.31;1018830;29;20031;-53
2021/08/09 02:24:23;;;;;;;5.18;2.97;;;;;;;11.93;100.00;96320.50;1019714;29;20019;-53
2021/08/09 02:24:59;;;;;;;5.70;3.30;;;;;;;11.93;100.00;96310.84;1017900;29;20071;-53
2021/08/09 02:25:32;;;;;;;7.70;3.28;;;;;;;11.95;100.00;96318.59;1025701;28;20024;-53
2021/08/09 02:26:03;;;;;;;5.22;3.53;;;;;;;11.90;100.00;96316.31;1023584;29;20011;-53
2021/08/09 02:26:36;;;;;;;6.10;3.03;;;;;;;11.91;100.00;96319.78;1023704;28;20024;-53
2021/08/09 02:27:09;;;;;;;4.60;3.20;;;;;;;11.87;100.00;96316.50;1023807;29;20120;-52
2021/08/09 02:27:43;;;;;;;4.93;2.80;;;;;;;11.87;100.00;96325.19;1023490;29;20012;-52
2021/08/09 02:28:16;;;;;;;4.68;2.40;;;;;;;11.85;100.00;96321.00;1019666;29;20473;-54
2021/08/09 02:28:47;;;;;;;7.90;2.78;;;;;;;11.85;100.00;96318.38;1023692;28;20516;-53
2021/08/09 02:29:22;;;;;;;4.93;3.05;;;;;;;11.82;100.00;96326.47;1019739;29;20058;-54
2021/08/09 02:29:53;;;;;;;6.00;2.92;;;;;;;11.81;100.00;96324.81;1019589;29;20032;-52
2021/08/09 02:30:24;;;;;;;5.13;3.10;;;;;;;11.75;100.00;96323.44;1020626;29;20024;-53
2021/08/09 02:30:58;;;;;;;6.82;2.90;;;;;;;11.76;100.00;96332.97;1019730;29;20458;-53
2021/08/09 02:31:29;;;;;;;5.20;3.28;;;;;;;11.79;100.00;96324.91;1023652;29;20039;-52
2021/08/09 02:32:01;;;;;;;8.38;3.25;;;;;;;11.73;100.00;96320.09;1023368;29;20019;-54